Ana Sayfa
METAR-TAF:

METAR-TAF

Havaalanları :

Ivano-Frankivsk Uluslararası Havalimanı

İvano-Frankivsk, Ukrayna

Enlem: 48-53-03N, Boylam: 024-41-10E, yükseklik: 280 m

Güncel hava durumu gözlemi

Rapor saat 20:00 UTC de 18 dakika önce yapıldı.
Sıcaklık 20°C
Nem 88%
Basınç 1021 hPa
Görüş mesafesi 10 km veya daha fazla
1500 m altında bulut yok ve kümülonimbus yok

METAR: UKLI 262000Z /////MPS CAVOK 20/18 Q1021 R28/090070 NOSIG

Saat: 23:18 (20:18 UTC)

Tahmin

Rapor saat 17:05 UTC de 3 saat ve 13 dakika önce yapıldı.
Ayın 26'si saat 18 UTC'den ayın 27'si saat 03 UTC'ye kadar geçerli Tahmin
Rüzgar değişken yönden 2 kt
Görüş mesafesi 10 km veya daha fazla
3000 ft yükseklikte parçalı çok bulutlu
Geçici
ayın 26'si saat 21 UTC'den ayın 27'si saat 03 UTC'ye kadar
Görüş mesafesi: 3000 m
Pus

TAF: UKLI 261705Z 2618/2703 VRB01MPS 9999 BKN030 TX25/2618Z TN18/2703Z TEMPO 2621/2703 3000 BR

4.000'den fazla havaalanı için hava durumu gözlemleri ve tahminleri (METAR ve TAF raporları).

Kullanılabilir istasyonlar harita üzerinde sarı ve kırmızı noktalarla gösterilir.

İstasyonun adını görmek için fareyi noktanın üzerinde gezdirin.

Sonrasında hava gözlem ve tahminlerini görmek için tıklayın.

Haritayı değiştirmek için: yaklaştırmak için siyah artı işaretli yeşil düğmeye ve uzaklaştırmak için de eksi işaretli düğmeye hızla tıklayın; bitişik haritalar için yeşil okları kullanın.


METAR-TAF: